Nearby METAR Reports

 

KSJC - San Jose, California, USA
Distance from station: NE 9mi, 14km
Updated: Tue, 27-Jul-2021 2:53pm CDT
Partly cloudy
Partly cloudy
 Wind from NNW
Wind: NNW 10 mph , 17 km/h
Temperature: 82°F , 28°C
Dew Point: 54°F , 12°C
Humidity: 37%
Barometer: 29.97 inHg , 1014.9 hPa
Clouds: Partly cloudy
Visibility: 10 miles , 16 km
Cloud details: Few Clouds 6000 ft
Partly cloudy 10000 ft
Partly cloudy 15000 ft
2021/07/27 19:53 KSJC 271953Z 33009KT 10SM FEW060 SCT100 SCT150 28/12 A2997 RMK AO2 SLP148 T02830117
KNUQ - Moffett Nas/Mtn, California, USA
Distance from station: N 9mi, 14km
Updated: Tue, 27-Jul-2021 3:15pm CDT
Clear
Clear
 Wind from N
Wind: N 12 mph , 19 km/h
Temperature: 77°F , 25°C
Dew Point: 54°F , 12°C
Humidity: 44%
Barometer: 29.98 inHg , 1015.2 hPa
Clouds: Clear
Visibility: 10 miles , 16 km
2021/07/27 20:15 KNUQ 272015Z AUTO 35010KT 10SM CLR 25/12 A2998 RMK AO2
 
KPAO - Palo Alto, California, USA
Distance from station: NNW 14mi, 23km
Updated: Tue, 27-Jul-2021 2:47pm CDT
Few Clouds
Few Clouds
 Wind from NNW
Wind: NNW 12 mph , 19 km/h
Temperature: 75°F , 24°C
Dew Point: 57°F , 14°C
Humidity: 54%
Barometer: 29.99 inHg , 1015.6 hPa
Clouds: Few Clouds
Visibility: 10 miles , 16 km
Cloud details: Few Clouds 10000 ft
2021/07/27 19:47 KPAO 271947Z 33010KT 10SM FEW100 24/14 A2999
KRHV - San Jose/Reid, California, USA
Distance from station: ENE 12mi, 19km
Updated: Tue, 27-Jul-2021 2:47pm CDT
Partly cloudy
Partly cloudy
 Wind from NNW
Wind: NNW 7 mph , 11 km/h
Temperature: 84°F , 29°C
Dew Point: 55°F , 13°C
Humidity: 37%
Barometer: 29.98 inHg , 1015.2 hPa
Clouds: Partly cloudy
Visibility: 10 miles , 16 km
Cloud details: Partly cloudy 6000 ft
2021/07/27 19:47 KRHV 271947Z 33006KT 10SM SCT060 29/13 A2998
 
KOAK - Oakland, California, USA
Distance from station: NNW 31mi, 50km
Updated: Tue, 27-Jul-2021 2:53pm CDT
Partly cloudy
Partly cloudy
 Wind from NW
Wind: NW 12 mph , 19 km/h
Temperature: 77°F , 25°C
Dew Point: 55°F , 13°C
Humidity: 47%
Barometer: 29.99 inHg , 1015.6 hPa
Clouds: Partly cloudy
Visibility: 10 miles , 16 km
Cloud details: Few Clouds 14000 ft
Partly cloudy 20000 ft
2021/07/27 19:53 KOAK 271953Z 32010KT 10SM FEW140 SCT200 25/13 A2999 RMK AO2 SLP156 T02500133
KSQL - San Carlos Airpo, California, USA
Distance from station: NW 21mi, 34km
Updated: Tue, 27-Jul-2021 2:49pm CDT
Few Clouds
Few Clouds
 Wind from N
Wind: N 12 mph , 19 km/h
Temperature: 75°F , 24°C
Dew Point: 59°F , 15°C
Humidity: 57%
Barometer: 30.00 inHg , 1015.9 hPa
Clouds: Few Clouds
Visibility: 10 miles , 16 km
Cloud details: Few Clouds 20000 ft
2021/07/27 19:49 KSQL 271949Z 35010KT 10SM FEW200 24/15 A3000
 
KSFO - San Francisco, California, USA
Distance from station: NW 30mi, 49km
Updated: Tue, 27-Jul-2021 2:56pm CDT
Partly cloudy
Partly cloudy
 Wind from NW
Wind: NW 14 mph , 22 km/h
Temperature: 75°F , 24°C
Dew Point: 55°F , 13°C
Humidity: 50%
Barometer: 29.99 inHg , 1015.6 hPa
Clouds: Partly cloudy
Visibility: 10 miles , 16 km
Cloud details: Partly cloudy 14000 ft
2021/07/27 19:56 KSFO 271956Z 31012KT 10SM SCT140 24/13 A2999 RMK A02 SLP155 T02390133
KE16 - San Martin, California, USA
Distance from station: ESE 27mi, 43km
Updated: Tue, 27-Jul-2021 3:15pm CDT
Clear
Clear
 Wind from WSW
Wind: WSW 3 mph , 6 km/h
Temperature: 91°F , 33°C
Dew Point: 46°F , 8°C
Humidity: 21%
Barometer: 29.96 inHg , 1014.6 hPa
Clouds: Clear
Visibility: 10 miles , 16 km
2021/07/27 20:15 KE16 272015Z AUTO 24003KT 10SM CLR 33/08 A2996 RMK AO2
 
KWVI - Watsonville, California, USA
Distance from station: SSE 27mi, 44km
Updated: Tue, 27-Jul-2021 2:53pm CDT
Clear
Clear
 Wind from WSW
Wind: WSW 10 mph , 17 km/h
Barometer: 30.01 inHg , 1016.3 hPa
Clouds: Clear
2021/07/27 19:53 KWVI 271953Z AUTO 25009KT 220V290 CLR A3001 RMK AO2 SLPNO $
KHAF - Half Moon Bay, California, USA
Distance from station: WNW 31mi, 50km
Updated: Fri, 09-Jul-2021 9:35am CDT
NOT Current
Light rain, Clear
Light rain, Clear
 
Temperature: 55°F , 13°C
Dew Point: 54°F , 12°C
Humidity: 94%
Barometer: 29.91 inHg , 1012.9 hPa
Summary: Light rain
Clouds: Clear
Visibility: 4 miles , 6 km
2021/07/09 14:35 KHAF 091435Z AUTO 4SM -RA CLR 13/12 A2991 RMK AO2
 
KHWD - Hayward, California, USA
Distance from station: N 28mi, 44km
Updated: Tue, 27-Jul-2021 2:54pm CDT
Clear
Clear
 Wind from W
Wind: W 12 mph , 19 km/h
Temperature: 79°F , 26°C
Dew Point: 57°F , 14°C
Humidity: 48%
Barometer: 29.98 inHg , 1015.2 hPa
Clouds: Clear
Visibility: 10 miles , 16 km
2021/07/27 19:54 KHWD 271954Z 27010KT 10SM CLR 26/14 A2998 RMK AO2 SLP162 T02560144
KLVK - Livermore, California, USA
Distance from station: NNE 31mi, 51km
Updated: Tue, 27-Jul-2021 2:53pm CDT
Clear
Clear
 Wind from ENE
Wind: ENE 9 mph , 15 km/h
Temperature: 95°F , 35°C
Dew Point: 39°F , 4°C
Humidity: 14%
Barometer: 29.96 inHg , 1014.6 hPa
Clouds: Clear
Visibility: 10 miles , 16 km
2021/07/27 19:53 KLVK 271953Z 07008KT 030V090 10SM CLR 35/04 A2996 RMK AO2 SLP140 T03500044